sensor_id;sensor_type;location;lat;lon;timestamp;pressure;altitude;pressure_sealevel;temperature;humidity
74327;BME280;62745;51.060;13.786;2024-01-30T00:00:49;101680.25;;;3.73;86.24
74327;BME280;62745;51.060;13.786;2024-01-30T00:03:16;101668.25;;;3.80;86.13
74327;BME280;62745;51.060;13.786;2024-01-30T00:05:42;101671.13;;;3.77;86.14
74327;BME280;62745;51.060;13.786;2024-01-30T00:08:09;101672.06;;;3.76;85.91
74327;BME280;62745;51.060;13.786;2024-01-30T00:10:36;101670.88;;;3.80;85.53
74327;BME280;62745;51.060;13.786;2024-01-30T00:13:02;101670.63;;;3.72;86.10
74327;BME280;62745;51.060;13.786;2024-01-30T00:15:29;101669.06;;;3.70;86.69
74327;BME280;62745;51.060;13.786;2024-01-30T00:17:55;101670.63;;;3.72;86.30
74327;BME280;62745;51.060;13.786;2024-01-30T00:20:23;101664.94;;;3.66;87.04
74327;BME280;62745;51.060;13.786;2024-01-30T00:22:49;101663.38;;;3.63;86.16
74327;BME280;62745;51.060;13.786;2024-01-30T00:25:18;101672.25;;;3.62;86.88
74327;BME280;62745;51.060;13.786;2024-01-30T00:27:45;101670.81;;;3.69;87.17
74327;BME280;62745;51.060;13.786;2024-01-30T00:30:12;101660.66;;;3.76;86.67
74327;BME280;62745;51.060;13.786;2024-01-30T00:32:38;101663.78;;;3.70;86.02
74327;BME280;62745;51.060;13.786;2024-01-30T00:35:05;101655.91;;;3.57;86.36
74327;BME280;62745;51.060;13.786;2024-01-30T00:37:32;101661.50;;;3.52;87.10
74327;BME280;62745;51.060;13.786;2024-01-30T00:39:58;101662.56;;;3.50;86.93
74327;BME280;62745;51.060;13.786;2024-01-30T00:42:25;101663.28;;;3.52;87.25
74327;BME280;62745;51.060;13.786;2024-01-30T00:44:51;101656.22;;;3.52;86.62
74327;BME280;62745;51.060;13.786;2024-01-30T00:47:18;101651.69;;;3.54;87.08
74327;BME280;62745;51.060;13.786;2024-01-30T00:49:44;101660.88;;;3.49;86.86
74327;BME280;62745;51.060;13.786;2024-01-30T00:52:11;101666.88;;;3.51;87.26
74327;BME280;62745;51.060;13.786;2024-01-30T00:54:38;101650.88;;;3.41;86.06
74327;BME280;62745;51.060;13.786;2024-01-30T00:57:04;101651.50;;;3.45;86.00
74327;BME280;62745;51.060;13.786;2024-01-30T00:59:31;101665.94;;;3.52;85.65
74327;BME280;62745;51.060;13.786;2024-01-30T01:01:57;101667.84;;;3.50;86.13
74327;BME280;62745;51.060;13.786;2024-01-30T01:04:24;101672.84;;;3.42;86.39
74327;BME280;62745;51.060;13.786;2024-01-30T01:06:50;101674.31;;;3.46;85.69
74327;BME280;62745;51.060;13.786;2024-01-30T01:09:17;101672.25;;;3.38;86.18
74327;BME280;62745;51.060;13.786;2024-01-30T01:11:43;101678.47;;;3.37;86.79
74327;BME280;62745;51.060;13.786;2024-01-30T01:14:10;101666.22;;;3.36;86.77
74327;BME280;62745;51.060;13.786;2024-01-30T01:16:36;101659.44;;;3.45;86.22
74327;BME280;62745;51.060;13.786;2024-01-30T01:19:03;101657.13;;;3.40;86.09
74327;BME280;62745;51.060;13.786;2024-01-30T01:21:30;101660.59;;;3.41;86.62
74327;BME280;62745;51.060;13.786;2024-01-30T01:23:57;101663.25;;;3.41;86.61
74327;BME280;62745;51.060;13.786;2024-01-30T01:26:24;101662.84;;;3.34;86.46
74327;BME280;62745;51.060;13.786;2024-01-30T01:28:50;101666.00;;;3.39;86.14
74327;BME280;62745;51.060;13.786;2024-01-30T01:31:17;101664.63;;;3.33;86.55
74327;BME280;62745;51.060;13.786;2024-01-30T01:33:44;101662.00;;;3.33;86.51
74327;BME280;62745;51.060;13.786;2024-01-30T01:36:11;101663.16;;;3.29;87.18
74327;BME280;62745;51.060;13.786;2024-01-30T01:38:38;101663.91;;;3.31;87.07
74327;BME280;62745;51.060;13.786;2024-01-30T01:41:04;101668.66;;;3.39;86.51
74327;BME280;62745;51.060;13.786;2024-01-30T01:43:31;101659.81;;;3.27;86.86
74327;BME280;62745;51.060;13.786;2024-01-30T01:45:57;101660.31;;;3.32;87.42
74327;BME280;62745;51.060;13.786;2024-01-30T01:48:25;101659.91;;;3.26;87.21
74327;BME280;62745;51.060;13.786;2024-01-30T01:50:52;101658.63;;;3.31;87.38
74327;BME280;62745;51.060;13.786;2024-01-30T01:53:19;101661.50;;;3.28;87.40
74327;BME280;62745;51.060;13.786;2024-01-30T01:55:45;101649.56;;;3.23;87.28
74327;BME280;62745;51.060;13.786;2024-01-30T01:58:13;101662.44;;;3.27;87.40
74327;BME280;62745;51.060;13.786;2024-01-30T02:00:41;101659.19;;;3.24;87.75
74327;BME280;62745;51.060;13.786;2024-01-30T02:03:10;101655.59;;;3.25;87.03
74327;BME280;62745;51.060;13.786;2024-01-30T02:05:38;101663.00;;;3.20;87.90
74327;BME280;62745;51.060;13.786;2024-01-30T02:08:05;101653.47;;;3.17;87.83
74327;BME280;62745;51.060;13.786;2024-01-30T02:10:32;101648.31;;;3.16;88.19
74327;BME280;62745;51.060;13.786;2024-01-30T02:12:58;101649.81;;;3.20;87.28
74327;BME280;62745;51.060;13.786;2024-01-30T02:15:24;101652.88;;;3.14;88.00
74327;BME280;62745;51.060;13.786;2024-01-30T02:17:51;101643.59;;;3.08;88.47
74327;BME280;62745;51.060;13.786;2024-01-30T02:20:18;101657.03;;;3.05;88.67
74327;BME280;62745;51.060;13.786;2024-01-30T02:22:44;101647.72;;;2.99;89.14
74327;BME280;62745;51.060;13.786;2024-01-30T02:25:11;101650.16;;;3.03;89.16
74327;BME280;62745;51.060;13.786;2024-01-30T02:27:37;101652.47;;;3.07;88.81
74327;BME280;62745;51.060;13.786;2024-01-30T02:30:04;101649.09;;;3.05;88.61
74327;BME280;62745;51.060;13.786;2024-01-30T02:32:31;101645.81;;;3.01;88.72
74327;BME280;62745;51.060;13.786;2024-01-30T02:34:58;101654.16;;;3.08;89.10
74327;BME280;62745;51.060;13.786;2024-01-30T02:37:24;101635.06;;;2.92;88.71
74327;BME280;62745;51.060;13.786;2024-01-30T02:39:51;101641.38;;;3.02;89.24
74327;BME280;62745;51.060;13.786;2024-01-30T02:42:17;101636.22;;;3.00;88.96
74327;BME280;62745;51.060;13.786;2024-01-30T02:44:43;101641.06;;;3.07;89.48
74327;BME280;62745;51.060;13.786;2024-01-30T02:47:10;101634.75;;;2.96;89.99
74327;BME280;62745;51.060;13.786;2024-01-30T02:49:36;101642.44;;;2.99;89.79
74327;BME280;62745;51.060;13.786;2024-01-30T02:52:03;101636.53;;;2.96;89.31
74327;BME280;62745;51.060;13.786;2024-01-30T02:54:29;101640.13;;;2.95;89.49
74327;BME280;62745;51.060;13.786;2024-01-30T02:56:57;101638.44;;;2.94;88.93
74327;BME280;62745;51.060;13.786;2024-01-30T02:59:23;101634.53;;;2.99;89.35
74327;BME280;62745;51.060;13.786;2024-01-30T03:01:50;101634.97;;;2.93;89.80
74327;BME280;62745;51.060;13.786;2024-01-30T03:04:17;101630.66;;;2.92;89.54
74327;BME280;62745;51.060;13.786;2024-01-30T03:06:48;101634.56;;;2.87;90.06
74327;BME280;62745;51.060;13.786;2024-01-30T03:09:16;101640.97;;;2.95;88.93
74327;BME280;62745;51.060;13.786;2024-01-30T03:11:43;101639.50;;;2.91;89.57
74327;BME280;62745;51.060;13.786;2024-01-30T03:14:10;101637.00;;;2.90;89.24
74327;BME280;62745;51.060;13.786;2024-01-30T03:16:37;101641.53;;;2.88;89.70
74327;BME280;62745;51.060;13.786;2024-01-30T03:19:06;101640.81;;;2.86;90.00
74327;BME280;62745;51.060;13.786;2024-01-30T03:21:34;101633.53;;;2.77;90.05
74327;BME280;62745;51.060;13.786;2024-01-30T03:24:00;101626.00;;;2.83;90.02
74327;BME280;62745;51.060;13.786;2024-01-30T03:26:27;101631.81;;;2.88;90.47
74327;BME280;62745;51.060;13.786;2024-01-30T03:28:53;101624.44;;;2.81;90.96
74327;BME280;62745;51.060;13.786;2024-01-30T03:31:20;101640.47;;;2.78;91.00
74327;BME280;62745;51.060;13.786;2024-01-30T03:33:46;101631.50;;;2.80;90.41
74327;BME280;62745;51.060;13.786;2024-01-30T03:36:13;101630.88;;;2.77;90.13
74327;BME280;62745;51.060;13.786;2024-01-30T03:38:41;101631.84;;;2.76;90.68
74327;BME280;62745;51.060;13.786;2024-01-30T03:41:08;101630.16;;;2.75;90.99
74327;BME280;62745;51.060;13.786;2024-01-30T03:43:36;101634.69;;;2.72;91.08
74327;BME280;62745;51.060;13.786;2024-01-30T03:46:03;101632.56;;;2.78;90.87
74327;BME280;62745;51.060;13.786;2024-01-30T03:48:30;101625.59;;;2.77;91.48
74327;BME280;62745;51.060;13.786;2024-01-30T03:50:56;101626.88;;;2.71;92.52
74327;BME280;62745;51.060;13.786;2024-01-30T03:53:22;101624.78;;;2.63;92.60
74327;BME280;62745;51.060;13.786;2024-01-30T03:55:49;101631.44;;;2.69;92.46
74327;BME280;62745;51.060;13.786;2024-01-30T03:58:15;101628.38;;;2.62;92.14
74327;BME280;62745;51.060;13.786;2024-01-30T04:00:42;101633.63;;;2.62;92.79
74327;BME280;62745;51.060;13.786;2024-01-30T04:03:08;101634.16;;;2.67;92.71
74327;BME280;62745;51.060;13.786;2024-01-30T04:05:35;101620.34;;;2.64;92.94
74327;BME280;62745;51.060;13.786;2024-01-30T04:08:01;101627.91;;;2.68;92.66
74327;BME280;62745;51.060;13.786;2024-01-30T04:10:28;101625.09;;;2.71;91.74
74327;BME280;62745;51.060;13.786;2024-01-30T04:12:55;101619.28;;;2.66;92.23
74327;BME280;62745;51.060;13.786;2024-01-30T04:15:21;101631.72;;;2.64;92.29
74327;BME280;62745;51.060;13.786;2024-01-30T04:17:48;101623.94;;;2.63;92.04
74327;BME280;62745;51.060;13.786;2024-01-30T04:20:14;101622.88;;;2.65;92.76
74327;BME280;62745;51.060;13.786;2024-01-30T04:22:46;101621.28;;;2.63;92.99
74327;BME280;62745;51.060;13.786;2024-01-30T04:25:13;101617.81;;;2.62;93.65
74327;BME280;62745;51.060;13.786;2024-01-30T04:27:40;101622.03;;;2.65;92.88
74327;BME280;62745;51.060;13.786;2024-01-30T04:30:07;101614.31;;;2.62;93.18
74327;BME280;62745;51.060;13.786;2024-01-30T04:32:34;101619.59;;;2.62;93.48
74327;BME280;62745;51.060;13.786;2024-01-30T04:35:01;101625.00;;;2.60;93.01
74327;BME280;62745;51.060;13.786;2024-01-30T04:37:29;101612.13;;;2.56;93.22
74327;BME280;62745;51.060;13.786;2024-01-30T04:39:55;101618.97;;;2.58;93.36
74327;BME280;62745;51.060;13.786;2024-01-30T04:42:21;101624.16;;;2.60;93.47
74327;BME280;62745;51.060;13.786;2024-01-30T04:44:49;101621.72;;;2.57;94.10
74327;BME280;62745;51.060;13.786;2024-01-30T04:47:16;101612.25;;;2.54;94.28
74327;BME280;62745;51.060;13.786;2024-01-30T04:49:42;101604.50;;;2.51;94.14
74327;BME280;62745;51.060;13.786;2024-01-30T04:52:09;101613.28;;;2.52;94.73
74327;BME280;62745;51.060;13.786;2024-01-30T04:54:36;101604.31;;;2.54;94.04
74327;BME280;62745;51.060;13.786;2024-01-30T04:57:02;101610.00;;;2.61;93.79
74327;BME280;62745;51.060;13.786;2024-01-30T04:59:29;101603.38;;;2.55;93.73
74327;BME280;62745;51.060;13.786;2024-01-30T05:01:55;101615.16;;;2.62;93.82
74327;BME280;62745;51.060;13.786;2024-01-30T05:04:22;101610.84;;;2.61;93.64
74327;BME280;62745;51.060;13.786;2024-01-30T05:06:48;101604.84;;;2.59;93.47
74327;BME280;62745;51.060;13.786;2024-01-30T05:09:15;101610.13;;;2.59;93.89
74327;BME280;62745;51.060;13.786;2024-01-30T05:11:42;101610.72;;;2.63;93.92
74327;BME280;62745;51.060;13.786;2024-01-30T05:14:08;101610.63;;;2.64;93.72
74327;BME280;62745;51.060;13.786;2024-01-30T05:16:35;101616.75;;;2.65;93.62
74327;BME280;62745;51.060;13.786;2024-01-30T05:19:02;101609.78;;;2.64;93.50
74327;BME280;62745;51.060;13.786;2024-01-30T05:21:29;101606.41;;;2.62;93.79
74327;BME280;62745;51.060;13.786;2024-01-30T05:23:55;101605.91;;;2.57;93.88
74327;BME280;62745;51.060;13.786;2024-01-30T05:26:22;101612.66;;;2.61;94.49
74327;BME280;62745;51.060;13.786;2024-01-30T05:28:49;101591.97;;;2.55;94.30
74327;BME280;62745;51.060;13.786;2024-01-30T05:31:15;101606.31;;;2.63;93.97
74327;BME280;62745;51.060;13.786;2024-01-30T05:33:42;101611.16;;;2.69;93.58
74327;BME280;62745;51.060;13.786;2024-01-30T05:36:12;101615.69;;;2.67;94.15
74327;BME280;62745;51.060;13.786;2024-01-30T05:38:39;101610.00;;;2.61;94.19
74327;BME280;62745;51.060;13.786;2024-01-30T05:41:06;101607.25;;;2.62;93.97
74327;BME280;62745;51.060;13.786;2024-01-30T05:43:32;101597.53;;;2.63;93.83
74327;BME280;62745;51.060;13.786;2024-01-30T05:45:59;101607.47;;;2.59;94.04
74327;BME280;62745;51.060;13.786;2024-01-30T05:48:25;101604.63;;;2.62;93.91
74327;BME280;62745;51.060;13.786;2024-01-30T05:50:51;101605.16;;;2.55;94.84
74327;BME280;62745;51.060;13.786;2024-01-30T05:53:18;101608.00;;;2.52;94.44
74327;BME280;62745;51.060;13.786;2024-01-30T05:55:45;101606.13;;;2.54;94.34
74327;BME280;62745;51.060;13.786;2024-01-30T05:58:12;101608.19;;;2.74;93.87
74327;BME280;62745;51.060;13.786;2024-01-30T06:00:38;101608.59;;;2.68;93.90
74327;BME280;62745;51.060;13.786;2024-01-30T06:03:05;101611.91;;;2.71;94.03
74327;BME280;62745;51.060;13.786;2024-01-30T06:05:31;101607.47;;;2.59;94.71
74327;BME280;62745;51.060;13.786;2024-01-30T06:07:58;101596.19;;;2.70;94.03
74327;BME280;62745;51.060;13.786;2024-01-30T06:10:24;101606.41;;;2.75;93.67
74327;BME280;62745;51.060;13.786;2024-01-30T06:12:51;101604.94;;;2.70;93.54
74327;BME280;62745;51.060;13.786;2024-01-30T06:15:17;101602.81;;;2.76;93.79
74327;BME280;62745;51.060;13.786;2024-01-30T06:17:44;101606.75;;;2.70;93.70
74327;BME280;62745;51.060;13.786;2024-01-30T06:20:10;101607.97;;;2.77;94.18
74327;BME280;62745;51.060;13.786;2024-01-30T06:22:37;101609.16;;;2.73;94.01
74327;BME280;62745;51.060;13.786;2024-01-30T06:25:04;101605.13;;;2.67;94.75
74327;BME280;62745;51.060;13.786;2024-01-30T06:27:30;101602.50;;;2.67;94.46
74327;BME280;62745;51.060;13.786;2024-01-30T06:29:56;101607.47;;;2.72;95.83
74327;BME280;62745;51.060;13.786;2024-01-30T06:32:23;101609.16;;;2.73;94.57
74327;BME280;62745;51.060;13.786;2024-01-30T06:34:49;101608.00;;;2.64;94.31
74327;BME280;62745;51.060;13.786;2024-01-30T06:37:16;101611.47;;;2.78;95.34
74327;BME280;62745;51.060;13.786;2024-01-30T06:39:43;101592.94;;;3.27;95.27
74327;BME280;62745;51.060;13.786;2024-01-30T06:42:10;101597.59;;;3.23;95.57
74327;BME280;62745;51.060;13.786;2024-01-30T06:44:38;101595.13;;;3.09;94.51
74327;BME280;62745;51.060;13.786;2024-01-30T06:47:04;101597.88;;;3.31;94.66
74327;BME280;62745;51.060;13.786;2024-01-30T06:49:31;101601.03;;;3.37;91.53
74327;BME280;62745;51.060;13.786;2024-01-30T06:51:58;101585.75;;;3.29;91.94
74327;BME280;62745;51.060;13.786;2024-01-30T06:54:24;101595.19;;;3.20;92.16
74327;BME280;62745;51.060;13.786;2024-01-30T06:56:51;101587.94;;;3.35;96.60
74327;BME280;62745;51.060;13.786;2024-01-30T06:59:17;101585.41;;;3.33;92.33
74327;BME280;62745;51.060;13.786;2024-01-30T07:01:43;101600.88;;;3.27;90.46
74327;BME280;62745;51.060;13.786;2024-01-30T07:04:10;101603.69;;;3.37;94.37
74327;BME280;62745;51.060;13.786;2024-01-30T07:06:36;101602.47;;;3.17;91.13
74327;BME280;62745;51.060;13.786;2024-01-30T07:09:03;101597.41;;;3.14;92.50
74327;BME280;62745;51.060;13.786;2024-01-30T07:11:29;101604.28;;;3.40;97.07
74327;BME280;62745;51.060;13.786;2024-01-30T07:13:56;101588.94;;;3.45;92.15
74327;BME280;62745;51.060;13.786;2024-01-30T07:16:22;101606.63;;;3.32;90.64
74327;BME280;62745;51.060;13.786;2024-01-30T07:18:49;101614.69;;;3.30;91.61
74327;BME280;62745;51.060;13.786;2024-01-30T07:21:16;101605.69;;;3.33;90.50
74327;BME280;62745;51.060;13.786;2024-01-30T07:23:43;101611.47;;;3.62;91.54
74327;BME280;62745;51.060;13.786;2024-01-30T07:26:10;101605.84;;;3.67;99.38
74327;BME280;62745;51.060;13.786;2024-01-30T07:28:36;101604.03;;;3.67;91.84
74327;BME280;62745;51.060;13.786;2024-01-30T07:31:03;101601.63;;;3.64;89.19
74327;BME280;62745;51.060;13.786;2024-01-30T07:33:29;101605.41;;;3.73;89.08
74327;BME280;62745;51.060;13.786;2024-01-30T07:35:56;101603.53;;;3.62;88.46
74327;BME280;62745;51.060;13.786;2024-01-30T07:38:24;101605.09;;;3.88;87.35
74327;BME280;62745;51.060;13.786;2024-01-30T07:40:50;101601.84;;;3.96;88.37
74327;BME280;62745;51.060;13.786;2024-01-30T07:43:17;101605.81;;;3.90;87.19
74327;BME280;62745;51.060;13.786;2024-01-30T07:45:43;101596.09;;;3.91;87.29
74327;BME280;62745;51.060;13.786;2024-01-30T07:48:10;101589.78;;;3.81;87.27
74327;BME280;62745;51.060;13.786;2024-01-30T07:50:36;101598.66;;;4.04;88.14
74327;BME280;62745;51.060;13.786;2024-01-30T07:53:03;101602.56;;;3.98;85.60
74327;BME280;62745;51.060;13.786;2024-01-30T07:55:29;101605.94;;;4.00;86.24
74327;BME280;62745;51.060;13.786;2024-01-30T07:57:58;101602.00;;;4.17;86.32
74327;BME280;62745;51.060;13.786;2024-01-30T08:00:28;101605.81;;;4.70;90.76
74327;BME280;62745;51.060;13.786;2024-01-30T08:02:56;101599.41;;;4.50;82.64
74327;BME280;62745;51.060;13.786;2024-01-30T08:05:23;101607.38;;;4.73;84.24
74327;BME280;62745;51.060;13.786;2024-01-30T08:07:50;101599.44;;;4.73;82.52
74327;BME280;62745;51.060;13.786;2024-01-30T08:10:17;101601.31;;;5.48;81.92
74327;BME280;62745;51.060;13.786;2024-01-30T08:12:46;101590.91;;;5.24;79.08
74327;BME280;62745;51.060;13.786;2024-01-30T08:15:13;101597.78;;;5.58;80.15
74327;BME280;62745;51.060;13.786;2024-01-30T08:17:39;101600.97;;;5.41;78.34
74327;BME280;62745;51.060;13.786;2024-01-30T08:20:06;101584.22;;;5.72;80.22
74327;BME280;62745;51.060;13.786;2024-01-30T08:22:34;101591.78;;;5.56;76.54
74327;BME280;62745;51.060;13.786;2024-01-30T08:25:01;101593.38;;;5.68;78.80
74327;BME280;62745;51.060;13.786;2024-01-30T08:27:28;101591.38;;;5.61;80.12
74327;BME280;62745;51.060;13.786;2024-01-30T08:29:54;101600.97;;;5.41;76.52
74327;BME280;62745;51.060;13.786;2024-01-30T08:32:20;101584.97;;;5.63;79.97
74327;BME280;62745;51.060;13.786;2024-01-30T08:34:47;101605.09;;;5.98;76.56
74327;BME280;62745;51.060;13.786;2024-01-30T08:37:14;101590.81;;;5.78;76.98
74327;BME280;62745;51.060;13.786;2024-01-30T08:39:43;101590.94;;;5.77;74.99
74327;BME280;62745;51.060;13.786;2024-01-30T08:42:10;101593.53;;;5.88;75.52
74327;BME280;62745;51.060;13.786;2024-01-30T08:44:36;101603.16;;;6.00;73.80
74327;BME280;62745;51.060;13.786;2024-01-30T08:47:03;101597.00;;;5.99;75.03
74327;BME280;62745;51.060;13.786;2024-01-30T08:49:29;101597.56;;;6.03;74.68
74327;BME280;62745;51.060;13.786;2024-01-30T08:51:56;101592.34;;;5.92;74.09
74327;BME280;62745;51.060;13.786;2024-01-30T08:54:24;101603.97;;;6.21;74.61
74327;BME280;62745;51.060;13.786;2024-01-30T08:56:50;101594.09;;;6.23;72.50
74327;BME280;62745;51.060;13.786;2024-01-30T08:59:18;101600.75;;;6.39;71.86
74327;BME280;62745;51.060;13.786;2024-01-30T09:01:45;101594.69;;;6.57;76.13
74327;BME280;62745;51.060;13.786;2024-01-30T09:04:28;101608.56;;;6.71;72.59
74327;BME280;62745;51.060;13.786;2024-01-30T09:06:55;101616.50;;;6.61;72.09
74327;BME280;62745;51.060;13.786;2024-01-30T09:09:22;101623.22;;;6.65;73.48
74327;BME280;62745;51.060;13.786;2024-01-30T09:11:48;101623.13;;;6.46;70.96
74327;BME280;62745;51.060;13.786;2024-01-30T09:14:15;101628.78;;;6.62;70.14
74327;BME280;62745;51.060;13.786;2024-01-30T09:16:41;101629.44;;;6.85;69.20
74327;BME280;62745;51.060;13.786;2024-01-30T09:19:08;101632.44;;;6.71;68.87
74327;BME280;62745;51.060;13.786;2024-01-30T09:21:34;101630.81;;;6.79;70.66
74327;BME280;62745;51.060;13.786;2024-01-30T09:24:02;101640.69;;;6.68;69.38
74327;BME280;62745;51.060;13.786;2024-01-30T09:26:30;101649.13;;;6.73;69.22
74327;BME280;62745;51.060;13.786;2024-01-30T09:28:56;101646.19;;;6.76;69.17
74327;BME280;62745;51.060;13.786;2024-01-30T09:31:23;101640.41;;;6.71;72.54
74327;BME280;62745;51.060;13.786;2024-01-30T09:33:50;101639.00;;;6.97;71.59
74327;BME280;62745;51.060;13.786;2024-01-30T09:36:17;101650.34;;;6.69;69.89
74327;BME280;62745;51.060;13.786;2024-01-30T09:38:46;101645.66;;;6.82;69.11
74327;BME280;62745;51.060;13.786;2024-01-30T09:41:12;101625.44;;;7.00;74.21
74327;BME280;62745;51.060;13.786;2024-01-30T09:43:39;101636.13;;;6.79;69.11
74327;BME280;62745;51.060;13.786;2024-01-30T09:46:12;101630.41;;;6.74;68.67
74327;BME280;62745;51.060;13.786;2024-01-30T09:48:42;101625.81;;;6.86;67.61
74327;BME280;62745;51.060;13.786;2024-01-30T09:51:09;101632.16;;;7.04;69.20
74327;BME280;62745;51.060;13.786;2024-01-30T09:53:37;101617.28;;;7.22;71.48
74327;BME280;62745;51.060;13.786;2024-01-30T09:56:04;101610.00;;;7.34;67.49
74327;BME280;62745;51.060;13.786;2024-01-30T09:58:31;101602.72;;;7.36;68.14
74327;BME280;62745;51.060;13.786;2024-01-30T10:00:58;101600.44;;;7.22;67.47
74327;BME280;62745;51.060;13.786;2024-01-30T10:03:25;101606.22;;;7.37;71.58
74327;BME280;62745;51.060;13.786;2024-01-30T10:05:52;101610.38;;;7.20;66.12
74327;BME280;62745;51.060;13.786;2024-01-30T10:08:19;101602.28;;;7.12;66.40
74327;BME280;62745;51.060;13.786;2024-01-30T10:10:49;101601.28;;;7.13;66.56
74327;BME280;62745;51.060;13.786;2024-01-30T10:13:16;101587.03;;;7.14;66.32
74327;BME280;62745;51.060;13.786;2024-01-30T10:15:44;101588.69;;;7.15;68.03
74327;BME280;62745;51.060;13.786;2024-01-30T10:18:11;101596.56;;;7.36;66.42
74327;BME280;62745;51.060;13.786;2024-01-30T10:20:38;101586.78;;;7.55;65.02
74327;BME280;62745;51.060;13.786;2024-01-30T10:23:04;101591.69;;;7.70;64.62
74327;BME280;62745;51.060;13.786;2024-01-30T10:25:31;101581.19;;;7.78;69.49
74327;BME280;62745;51.060;13.786;2024-01-30T10:27:58;101579.50;;;7.77;65.37
74327;BME280;62745;51.060;13.786;2024-01-30T10:30:25;101579.38;;;7.69;63.16
74327;BME280;62745;51.060;13.786;2024-01-30T10:32:51;101577.13;;;7.64;63.87
74327;BME280;62745;51.060;13.786;2024-01-30T10:35:18;101575.03;;;7.58;66.94
74327;BME280;62745;51.060;13.786;2024-01-30T10:37:47;101576.56;;;7.51;65.18
74327;BME280;62745;51.060;13.786;2024-01-30T10:40:14;101572.34;;;7.97;65.10
74327;BME280;62745;51.060;13.786;2024-01-30T10:42:43;101563.06;;;8.10;64.43
74327;BME280;62745;51.060;13.786;2024-01-30T10:45:12;101565.69;;;8.20;65.70
74327;BME280;62745;51.060;13.786;2024-01-30T10:48:05;101571.50;;;7.96;62.77
74327;BME280;62745;51.060;13.786;2024-01-30T10:50:34;101555.25;;;8.09;66.31
74327;BME280;62745;51.060;13.786;2024-01-30T10:53:08;101550.75;;;8.00;62.66
74327;BME280;62745;51.060;13.786;2024-01-30T10:55:36;101557.22;;;8.07;62.59
74327;BME280;62745;51.060;13.786;2024-01-30T10:58:04;101542.25;;;8.33;65.41
74327;BME280;62745;51.060;13.786;2024-01-30T11:00:31;101547.41;;;8.07;63.14
74327;BME280;62745;51.060;13.786;2024-01-30T11:02:59;101543.69;;;8.28;68.27
74327;BME280;62745;51.060;13.786;2024-01-30T11:05:27;101540.16;;;8.37;67.07
74327;BME280;62745;51.060;13.786;2024-01-30T11:07:59;101537.69;;;8.16;62.82
74327;BME280;62745;51.060;13.786;2024-01-30T11:10:25;101543.09;;;8.43;64.61
74327;BME280;62745;51.060;13.786;2024-01-30T11:12:52;101544.00;;;8.15;62.81
74327;BME280;62745;51.060;13.786;2024-01-30T11:15:19;101541.25;;;7.88;64.36
74327;BME280;62745;51.060;13.786;2024-01-30T11:20:25;101538.00;;;8.03;63.54
74327;BME280;62745;51.060;13.786;2024-01-30T11:22:52;101536.16;;;8.13;65.75
74327;BME280;62745;51.060;13.786;2024-01-30T11:25:20;101538.34;;;7.81;63.43
74327;BME280;62745;51.060;13.786;2024-01-30T11:27:49;101531.94;;;7.74;65.60
74327;BME280;62745;51.060;13.786;2024-01-30T11:30:22;101526.47;;;7.66;64.94
74327;BME280;62745;51.060;13.786;2024-01-30T11:33:02;101519.59;;;7.63;63.73
74327;BME280;62745;51.060;13.786;2024-01-30T11:35:37;101533.19;;;7.60;63.39
74327;BME280;62745;51.060;13.786;2024-01-30T11:38:10;101526.59;;;7.35;63.92
74327;BME280;62745;51.060;13.786;2024-01-30T11:40:38;101516.81;;;7.45;63.79
74327;BME280;62745;51.060;13.786;2024-01-30T11:43:06;101530.53;;;7.31;64.35
74327;BME280;62745;51.060;13.786;2024-01-30T11:45:34;101530.09;;;7.07;64.37
74327;BME280;62745;51.060;13.786;2024-01-30T11:48:01;101527.38;;;6.87;65.41
74327;BME280;62745;51.060;13.786;2024-01-30T11:50:31;101517.88;;;6.85;65.46
74327;BME280;62745;51.060;13.786;2024-01-30T11:52:59;101513.72;;;6.92;65.55
74327;BME280;62745;51.060;13.786;2024-01-30T11:55:26;101507.97;;;6.87;65.40
74327;BME280;62745;51.060;13.786;2024-01-30T11:57:59;101498.47;;;7.04;65.15
74327;BME280;62745;51.060;13.786;2024-01-30T12:00:26;101493.59;;;7.38;64.41
74327;BME280;62745;51.060;13.786;2024-01-30T12:02:53;101490.94;;;7.38;63.52
74327;BME280;62745;51.060;13.786;2024-01-30T12:05:24;101504.25;;;7.28;64.14
74327;BME280;62745;51.060;13.786;2024-01-30T12:07:52;101501.28;;;7.21;64.66
74327;BME280;62745;51.060;13.786;2024-01-30T12:10:19;101502.28;;;7.30;64.55
74327;BME280;62745;51.060;13.786;2024-01-30T12:12:48;101498.22;;;7.45;64.20
74327;BME280;62745;51.060;13.786;2024-01-30T12:15:16;101501.53;;;7.67;63.63
74327;BME280;62745;51.060;13.786;2024-01-30T12:17:42;101492.53;;;7.87;63.19
74327;BME280;62745;51.060;13.786;2024-01-30T12:22:41;101488.19;;;7.86;62.54
74327;BME280;62745;51.060;13.786;2024-01-30T12:25:10;101491.59;;;7.69;62.75
74327;BME280;62745;51.060;13.786;2024-01-30T12:27:37;101489.91;;;7.77;62.99
74327;BME280;62745;51.060;13.786;2024-01-30T12:30:12;101471.34;;;7.58;62.98
74327;BME280;62745;51.060;13.786;2024-01-30T12:32:41;101485.88;;;7.64;63.08
74327;BME280;62745;51.060;13.786;2024-01-30T12:35:15;101486.72;;;7.35;63.63
74327;BME280;62745;51.060;13.786;2024-01-30T12:37:46;101487.41;;;7.66;63.19
74327;BME280;62745;51.060;13.786;2024-01-30T12:40:14;101479.72;;;7.63;62.68
74327;BME280;62745;51.060;13.786;2024-01-30T12:42:42;101479.03;;;7.61;63.75
74327;BME280;62745;51.060;13.786;2024-01-30T12:45:09;101480.09;;;7.78;62.82
74327;BME280;62745;51.060;13.786;2024-01-30T12:47:35;101476.31;;;7.71;62.91
74327;BME280;62745;51.060;13.786;2024-01-30T12:50:02;101474.97;;;7.57;62.80
74327;BME280;62745;51.060;13.786;2024-01-30T12:52:29;101473.16;;;7.58;62.35
74327;BME280;62745;51.060;13.786;2024-01-30T12:54:56;101475.78;;;7.77;62.25